createdAt,value
2019-01-04T00:00:41.035Z,1.00
2019-01-04T00:03:10.843Z,1.00
2019-01-04T00:05:40.584Z,1.00
2019-01-04T00:08:10.425Z,1.00
2019-01-04T00:10:40.288Z,1.00
2019-01-04T00:13:10.118Z,0.90
2019-01-04T00:15:39.935Z,0.90
2019-01-04T00:18:09.677Z,0.90
2019-01-04T00:20:39.491Z,0.90
2019-01-04T00:23:09.292Z,1.00
2019-01-04T00:25:39.036Z,1.00
2019-01-04T00:28:09.263Z,1.00
2019-01-04T00:30:39.072Z,1.00
2019-01-04T00:33:08.801Z,1.10
2019-01-04T00:35:38.604Z,1.20
2019-01-04T00:38:08.408Z,1.20
2019-01-04T00:40:38.157Z,1.30
2019-01-04T00:43:07.997Z,1.30
2019-01-04T00:45:37.801Z,1.40
2019-01-04T00:48:07.604Z,1.40
2019-01-04T00:50:37.340Z,1.50
2019-01-04T00:53:07.149Z,1.50
2019-01-04T00:55:51.912Z,1.60
2019-01-04T00:58:33.464Z,1.20
2019-01-04T01:01:12.836Z,1.00
2019-01-04T01:03:54.305Z,0.90
2019-01-04T01:06:27.257Z,0.70
2019-01-04T01:09:22.574Z,0.80
2019-01-04T01:12:04.485Z,0.80
2019-01-04T01:15:10.007Z,0.80
2019-01-04T01:17:48.688Z,0.70
2019-01-04T01:20:41.233Z,0.70
2019-01-04T01:23:32.290Z,0.70
2019-01-04T01:26:32.121Z,0.70
2019-01-04T01:29:30.654Z,0.70
2019-01-04T01:32:36.876Z,0.80
2019-01-04T01:35:12.609Z,0.90
2019-01-04T01:38:20.429Z,0.90
2019-01-04T01:41:15.933Z,0.90
2019-01-04T01:43:54.639Z,1.00
2019-01-04T01:46:30.541Z,1.10
2019-01-04T01:49:28.969Z,1.10
2019-01-04T01:52:19.989Z,1.10
2019-01-04T01:54:49.795Z,1.10
2019-01-04T01:57:19.599Z,1.20
2019-01-04T01:59:49.339Z,1.20
2019-01-04T02:02:19.156Z,1.10
2019-01-04T02:04:48.955Z,1.20
2019-01-04T02:07:18.686Z,1.20
2019-01-04T02:09:48.487Z,1.20
2019-01-04T02:12:18.273Z,1.20
2019-01-04T02:14:48.075Z,1.20
2019-01-04T02:17:17.877Z,1.20
2019-01-04T02:19:47.637Z,1.20
2019-01-04T02:22:17.457Z,1.30
2019-01-04T02:24:47.189Z,1.30
2019-01-04T02:27:16.974Z,1.30
2019-01-04T02:29:46.707Z,1.30
2019-01-04T02:32:16.591Z,1.30
2019-01-04T02:34:46.325Z,1.30
2019-01-04T02:37:16.122Z,1.20
2019-01-04T02:39:45.931Z,1.30
2019-01-04T02:42:15.686Z,1.30
2019-01-04T02:44:45.490Z,1.20
2019-01-04T02:47:15.226Z,1.10
2019-01-04T02:49:45.033Z,1.00
2019-01-04T02:52:14.785Z,1.00
2019-01-04T02:54:44.591Z,1.00
2019-01-04T02:57:14.396Z,1.10
2019-01-04T02:59:44.193Z,1.00
2019-01-04T03:02:14.028Z,1.10
2019-01-04T03:04:43.832Z,1.10
2019-01-04T03:07:13.651Z,1.00
2019-01-04T03:09:43.378Z,0.90
2019-01-04T03:12:13.172Z,1.00
2019-01-04T03:14:42.905Z,1.00
2019-01-04T03:17:12.716Z,0.90
2019-01-04T03:19:42.442Z,0.90
2019-01-04T03:22:12.178Z,1.00
2019-01-04T03:24:41.997Z,1.00
2019-01-04T03:27:11.730Z,0.90
2019-01-04T03:29:42.177Z,1.10
2019-01-04T03:32:11.923Z,1.10
2019-01-04T03:34:41.812Z,1.10
2019-01-04T03:37:11.537Z,1.10
2019-01-04T03:39:41.326Z,1.20
2019-01-04T03:42:11.090Z,1.30
2019-01-04T03:44:40.996Z,1.40
2019-01-04T03:47:10.726Z,1.30
2019-01-04T03:49:40.536Z,1.30
2019-01-04T03:52:10.286Z,1.30
2019-01-04T03:54:40.092Z,1.30
2019-01-04T03:57:09.820Z,1.30
2019-01-04T03:59:39.625Z,1.30
2019-01-04T04:02:09.354Z,1.30
2019-01-04T04:04:39.177Z,1.30
2019-01-04T04:07:09.001Z,1.30
2019-01-04T04:09:38.801Z,1.30
2019-01-04T04:12:09.802Z,1.30
2019-01-04T04:14:40.834Z,1.30
2019-01-04T04:17:10.640Z,1.30
2019-01-04T04:19:40.364Z,1.40
2019-01-04T04:22:10.183Z,1.30
2019-01-04T04:24:39.909Z,1.40
2019-01-04T04:27:09.733Z,1.40
2019-01-04T04:29:39.565Z,1.30
2019-01-04T04:32:09.360Z,1.30
2019-01-04T04:34:39.197Z,1.30
2019-01-04T04:37:09.011Z,1.40
2019-01-04T04:39:38.749Z,1.40
2019-01-04T04:42:08.562Z,1.30
2019-01-04T04:44:38.293Z,1.40
2019-01-04T04:47:08.102Z,1.40
2019-01-04T04:49:37.904Z,1.30
2019-01-04T04:52:07.648Z,1.20
2019-01-04T04:54:37.448Z,1.30
2019-01-04T04:57:08.186Z,1.30
2019-01-04T04:59:37.987Z,1.20
2019-01-04T05:02:07.738Z,1.20
2019-01-04T05:04:37.539Z,1.20
2019-01-04T05:07:07.302Z,1.20
2019-01-04T05:09:37.101Z,1.20
2019-01-04T05:12:07.830Z,1.30
2019-01-04T05:14:37.651Z,1.30
2019-01-04T05:17:07.465Z,1.30
2019-01-04T05:19:37.256Z,1.30
2019-01-04T05:22:07.000Z,1.30
2019-01-04T05:24:36.814Z,1.30
2019-01-04T05:27:06.543Z,1.40
2019-01-04T05:29:36.278Z,1.40
2019-01-04T05:32:06.117Z,1.30
2019-01-04T05:34:35.917Z,1.30
2019-01-04T05:37:05.725Z,1.30
2019-01-04T05:39:35.453Z,1.20
2019-01-04T05:42:05.283Z,1.20
2019-01-04T05:44:35.016Z,1.10
2019-01-04T05:47:04.813Z,1.10
2019-01-04T05:49:34.546Z,1.00
2019-01-04T05:52:04.350Z,1.00
2019-01-04T05:54:34.086Z,1.00
2019-01-04T05:57:03.890Z,0.90
2019-01-04T05:59:33.626Z,0.80
2019-01-04T06:02:03.438Z,0.80
2019-01-04T06:04:33.188Z,0.80
2019-01-04T06:07:03.001Z,0.70
2019-01-04T06:09:32.806Z,0.70
2019-01-04T06:12:02.614Z,0.70
2019-01-04T06:14:32.417Z,0.70
2019-01-04T06:17:02.161Z,0.70
2019-01-04T06:19:33.558Z,0.70
2019-01-04T06:22:03.290Z,0.60
2019-01-04T06:24:33.086Z,0.70
2019-01-04T06:27:02.820Z,0.90
2019-01-04T06:29:32.612Z,1.20
2019-01-04T06:32:02.421Z,1.30
2019-01-04T06:34:32.173Z,1.30
2019-01-04T06:37:01.968Z,1.30
2019-01-04T06:39:34.501Z,1.40
2019-01-04T06:42:04.343Z,1.40
2019-01-04T06:44:34.100Z,1.40
2019-01-04T06:47:14.066Z,1.30
2019-01-04T06:49:43.898Z,1.30
2019-01-04T06:52:13.840Z,1.20
2019-01-04T06:55:34.899Z,1.10
2019-01-04T06:58:24.646Z,1.00
2019-01-04T07:00:54.412Z,0.80
2019-01-04T07:03:25.823Z,0.70
2019-01-04T07:05:55.647Z,0.60
2019-01-04T07:08:25.477Z,0.50
2019-01-04T07:10:56.530Z,0.40
2019-01-04T07:13:26.341Z,0.20
2019-01-04T07:15:56.110Z,0.20
2019-01-04T07:18:27.139Z,0.20
2019-01-04T07:20:56.939Z,0.10
2019-01-04T07:23:26.768Z,0.20
2019-01-04T07:25:56.507Z,0.10
2019-01-04T07:28:26.325Z,0.00
2019-01-04T07:30:56.138Z,0.00
2019-01-04T07:33:25.899Z,0.00
2019-01-04T07:35:55.646Z,0.20
2019-01-04T07:38:25.497Z,0.20
2019-01-04T07:40:55.322Z,0.30
2019-01-04T07:43:25.049Z,0.40
2019-01-04T07:45:54.855Z,0.40
2019-01-04T07:48:24.615Z,0.50
2019-01-04T07:50:54.418Z,0.40
2019-01-04T07:53:24.158Z,0.40
2019-01-04T07:55:53.962Z,0.40
2019-01-04T07:58:23.705Z,0.40
2019-01-04T08:00:53.532Z,0.40
2019-01-04T08:03:23.261Z,0.50
2019-01-04T08:05:57.779Z,0.60
2019-01-04T08:08:27.570Z,0.60
2019-01-04T08:10:57.379Z,0.60
2019-01-04T08:13:27.152Z,0.50
2019-01-04T08:15:56.959Z,0.50
2019-01-04T08:18:27.663Z,0.60
2019-01-04T08:20:57.394Z,0.60
2019-01-04T08:23:27.200Z,0.70
2019-01-04T08:25:56.934Z,0.90
2019-01-04T08:28:26.753Z,1.10
2019-01-04T08:30:56.482Z,1.30
2019-01-04T08:33:26.285Z,1.60
2019-01-04T08:35:56.097Z,1.80
2019-01-04T08:38:25.852Z,2.00
2019-01-04T08:40:55.581Z,2.50
2019-01-04T08:43:25.413Z,3.00
2019-01-04T08:45:55.143Z,3.50
2019-01-04T08:48:24.954Z,4.30
2019-01-04T08:50:54.709Z,5.40
2019-01-04T08:53:55.876Z,6.80
2019-01-04T08:56:28.883Z,5.90
2019-01-04T08:58:58.606Z,4.80
2019-01-04T09:01:28.409Z,5.20
2019-01-04T09:03:58.146Z,6.00
2019-01-04T09:06:27.956Z,7.10
2019-01-04T09:08:57.721Z,8.10
2019-01-04T09:11:27.505Z,7.90
2019-01-04T09:13:57.231Z,8.20
2019-01-04T09:16:27.041Z,8.60
2019-01-04T09:18:56.761Z,8.80
2019-01-04T09:21:26.561Z,8.80
2019-01-04T09:23:56.271Z,8.30
2019-01-04T09:26:26.060Z,8.00
2019-01-04T09:28:55.848Z,8.20
2019-01-04T09:31:25.568Z,7.90
2019-01-04T09:33:55.356Z,8.10
2019-01-04T09:36:25.077Z,7.40
2019-01-04T09:38:54.869Z,6.90
2019-01-04T09:41:33.365Z,7.00
2019-01-04T09:44:04.190Z,7.60
2019-01-04T09:46:34.016Z,7.40
2019-01-04T09:49:03.798Z,7.00
2019-01-04T09:51:34.715Z,6.90
2019-01-04T09:54:04.518Z,5.70
2019-01-04T09:56:34.239Z,4.90
2019-01-04T09:59:04.028Z,4.60
2019-01-04T10:01:33.748Z,4.80
2019-01-04T10:04:03.545Z,4.80
2019-01-04T10:06:33.443Z,4.90
2019-01-04T10:09:04.668Z,5.50
2019-01-04T10:11:34.506Z,5.10
2019-01-04T10:14:04.223Z,4.70
2019-01-04T10:16:34.019Z,4.20
2019-01-04T10:19:03.738Z,3.50
2019-01-04T10:21:34.920Z,3.20
2019-01-04T10:24:04.636Z,3.10
2019-01-04T10:26:34.429Z,3.20
2019-01-04T10:29:04.151Z,3.40
2019-01-04T10:31:33.948Z,3.30
2019-01-04T10:34:03.677Z,3.40
2019-01-04T10:36:33.468Z,3.40
2019-01-04T10:39:04.287Z,3.50
2019-01-04T10:41:34.027Z,3.60
2019-01-04T10:44:03.866Z,3.80
2019-01-04T10:46:33.599Z,4.00
2019-01-04T10:49:03.421Z,3.90
2019-01-04T10:51:33.139Z,4.70
2019-01-04T10:54:02.925Z,6.10
2019-01-04T10:56:32.639Z,6.60
2019-01-04T10:59:02.433Z,7.40
2019-01-04T11:01:32.220Z,9.30
2019-01-04T11:04:01.943Z,10.60
2019-01-04T11:06:31.739Z,10.80
2019-01-04T11:09:01.481Z,10.20
2019-01-04T11:11:32.875Z,11.30
2019-01-04T11:14:02.611Z,11.30
2019-01-04T11:16:32.420Z,10.60
2019-01-04T11:19:02.212Z,9.60
2019-01-04T11:21:31.927Z,9.60
2019-01-04T11:24:13.668Z,7.60
2019-01-04T11:26:46.819Z,5.90
2019-01-04T11:29:31.363Z,10.10
2019-01-04T11:32:20.605Z,12.90
2019-01-04T11:35:23.995Z,10.70
2019-01-04T11:38:31.287Z,7.50
2019-01-04T11:41:09.796Z,6.90
2019-01-04T11:44:05.351Z,8.80
2019-01-04T11:55:59.221Z,9.90
2019-01-04T12:17:14.598Z,6.10
2019-01-04T12:28:30.676Z,4.60
2019-01-04T12:31:00.567Z,4.80
2019-01-04T12:33:30.364Z,4.70
2019-01-04T12:36:00.149Z,4.70
2019-01-04T12:38:29.881Z,5.50
2019-01-04T12:44:37.728Z,4.50
2019-01-04T12:47:07.595Z,4.40
2019-01-04T12:49:37.800Z,4.40
2019-01-04T12:52:07.682Z,4.50
2019-01-04T12:55:20.908Z,4.80
2019-01-04T13:51:38.197Z,3.70
2019-01-04T14:01:08.973Z,3.30
2019-01-04T14:09:35.748Z,3.30
2019-01-04T14:26:35.312Z,3.00
2019-01-04T14:56:17.892Z,2.60
2019-01-04T14:59:03.241Z,2.50
2019-01-04T15:11:36.790Z,2.30
2019-01-04T15:14:16.029Z,2.20
2019-01-04T15:16:46.557Z,2.20
2019-01-04T15:22:20.510Z,2.00
2019-01-04T15:25:29.509Z,2.00
2019-01-04T15:46:17.588Z,1.70
2019-01-04T15:49:10.196Z,1.90
2019-01-04T16:30:53.279Z,1.60
2019-01-04T16:53:28.837Z,1.50
2019-01-04T17:02:29.125Z,1.60
2019-01-04T17:06:48.404Z,1.70
2019-01-04T17:07:55.532Z,1.60
2019-01-04T17:49:37.542Z,2.10
2019-01-04T18:22:08.773Z,2.30
2019-01-04T18:32:14.971Z,2.30
2019-01-04T18:35:06.912Z,2.30
2019-01-04T19:03:22.392Z,2.30
2019-01-04T19:06:04.500Z,2.30
2019-01-04T19:08:52.595Z,2.30
2019-01-04T20:25:01.963Z,2.20
2019-01-04T20:38:29.057Z,2.30
2019-01-04T20:41:18.793Z,2.40
2019-01-04T20:44:02.113Z,2.30
2019-01-04T20:46:46.921Z,2.40
2019-01-04T20:52:17.973Z,2.40
2019-01-04T20:55:03.023Z,2.40
2019-01-04T21:01:14.396Z,2.40
2019-01-04T21:03:47.975Z,2.40
2019-01-04T21:06:38.106Z,2.30
2019-01-04T21:09:25.038Z,2.50
2019-01-04T21:25:39.725Z,2.40
2019-01-04T21:28:41.674Z,2.40
2019-01-04T21:31:31.138Z,2.40
2019-01-04T21:37:50.266Z,2.40
2019-01-04T21:40:58.058Z,2.40
2019-01-04T21:43:33.264Z,2.40
2019-01-04T21:46:17.573Z,2.40
